createdAt,value
2019-03-08T00:00:41.969Z,987.47
2019-03-08T00:01:42.001Z,987.42
2019-03-08T00:02:41.949Z,987.66
2019-03-08T00:03:41.966Z,987.56
2019-03-08T00:04:41.954Z,987.49
2019-03-08T00:05:41.917Z,987.61
2019-03-08T00:06:41.903Z,987.49
2019-03-08T00:07:41.913Z,987.53
2019-03-08T00:08:41.883Z,987.72
2019-03-08T00:09:41.871Z,987.57
2019-03-08T00:10:41.860Z,987.55
2019-03-08T00:11:41.848Z,987.74
2019-03-08T00:12:41.853Z,987.71
2019-03-08T00:13:41.829Z,987.64
2019-03-08T00:14:41.812Z,987.81
2019-03-08T00:15:41.801Z,987.73
2019-03-08T00:16:41.792Z,987.77
2019-03-08T00:17:41.820Z,987.77
2019-03-08T00:18:41.768Z,987.73
2019-03-08T00:19:41.759Z,987.75
2019-03-08T00:20:41.745Z,987.82
2019-03-08T00:21:41.733Z,987.84
2019-03-08T00:22:41.725Z,987.96
2019-03-08T00:23:41.729Z,987.96
2019-03-08T00:24:41.698Z,987.90
2019-03-08T00:25:43.545Z,987.92
2019-03-08T00:26:41.677Z,988.12
2019-03-08T00:27:41.685Z,988.03
2019-03-08T00:28:41.652Z,988.04
2019-03-08T00:29:41.645Z,988.04
2019-03-08T00:30:41.635Z,988.05
2019-03-08T00:31:41.624Z,987.94
2019-03-08T00:32:41.646Z,988.13
2019-03-08T00:33:41.603Z,988.14
2019-03-08T00:34:41.615Z,988.10
2019-03-08T00:35:41.579Z,988.15
2019-03-08T00:36:41.585Z,988.11
2019-03-08T00:37:41.573Z,988.15
2019-03-08T00:38:41.543Z,988.13
2019-03-08T00:39:41.535Z,988.18
2019-03-08T00:40:41.521Z,988.22
2019-03-08T00:41:41.508Z,988.37
2019-03-08T00:42:41.520Z,988.23
2019-03-08T00:43:41.488Z,988.17
2019-03-08T00:44:41.474Z,988.08
2019-03-08T00:45:41.462Z,988.38
2019-03-08T00:46:41.450Z,988.25
2019-03-08T00:47:43.403Z,988.23
2019-03-08T00:48:41.427Z,988.51
2019-03-08T00:49:41.417Z,988.16
2019-03-08T00:50:41.404Z,988.24
2019-03-08T00:51:41.396Z,988.27
2019-03-08T00:52:41.405Z,988.35
2019-03-08T00:53:41.373Z,988.40
2019-03-08T00:54:41.358Z,988.25
2019-03-08T00:55:41.349Z,988.26
2019-03-08T00:56:41.336Z,988.27
2019-03-08T00:57:41.344Z,988.26
2019-03-08T00:58:41.315Z,988.17
2019-03-08T00:59:41.300Z,988.33
2019-03-08T01:00:41.291Z,988.28
2019-03-08T01:01:41.305Z,988.15
2019-03-08T01:02:41.338Z,988.17
2019-03-08T01:03:41.257Z,988.30
2019-03-08T01:04:41.246Z,988.27
2019-03-08T01:05:41.254Z,988.36
2019-03-08T01:06:41.222Z,988.32
2019-03-08T01:07:41.288Z,988.27
2019-03-08T01:08:41.198Z,988.43
2019-03-08T01:09:41.207Z,988.50
2019-03-08T01:10:41.196Z,988.34
2019-03-08T01:11:41.166Z,988.46
2019-03-08T01:12:41.166Z,988.56
2019-03-08T01:13:41.158Z,988.39
2019-03-08T01:14:41.132Z,988.44
2019-03-08T01:15:41.129Z,988.72
2019-03-08T01:16:41.109Z,988.52
2019-03-08T01:17:41.112Z,988.59
2019-03-08T01:18:41.100Z,988.46
2019-03-08T01:19:41.098Z,988.64
2019-03-08T01:20:41.061Z,988.51
2019-03-08T01:21:41.046Z,988.61
2019-03-08T01:22:41.037Z,988.55
2019-03-08T01:23:41.045Z,988.61
2019-03-08T01:24:41.013Z,988.74
2019-03-08T01:25:41.001Z,988.59
2019-03-08T01:26:40.989Z,988.68
2019-03-08T01:27:40.978Z,988.95
2019-03-08T01:28:40.985Z,988.76
2019-03-08T01:29:41.001Z,988.77
2019-03-08T01:30:40.949Z,988.86
2019-03-08T01:31:40.933Z,988.77
2019-03-08T01:32:40.923Z,988.88
2019-03-08T01:33:40.927Z,988.95
2019-03-08T01:34:40.901Z,988.83
2019-03-08T01:35:40.887Z,988.81
2019-03-08T01:36:40.878Z,988.95
2019-03-08T01:37:40.866Z,988.99
2019-03-08T01:38:40.874Z,988.96
2019-03-08T01:39:40.842Z,988.96
2019-03-08T01:40:40.833Z,989.12
2019-03-08T01:41:40.821Z,988.95
2019-03-08T01:42:40.808Z,989.06
2019-03-08T01:43:40.816Z,989.20
2019-03-08T01:44:40.787Z,989.07
2019-03-08T01:45:40.775Z,989.02
2019-03-08T01:46:40.763Z,989.02
2019-03-08T01:47:40.750Z,989.17
2019-03-08T01:48:40.782Z,989.23
2019-03-08T01:49:40.732Z,989.19
2019-03-08T01:50:40.717Z,989.23
2019-03-08T01:51:40.708Z,989.35
2019-03-08T01:52:40.699Z,989.23
2019-03-08T01:53:40.692Z,989.24
2019-03-08T01:54:40.693Z,989.29
2019-03-08T01:55:40.666Z,989.26
2019-03-08T01:56:40.649Z,989.25
2019-03-08T01:57:40.641Z,989.28
2019-03-08T01:58:40.627Z,989.28
2019-03-08T01:59:40.639Z,989.27
2019-03-08T02:00:40.905Z,989.34
2019-03-08T02:01:40.595Z,989.29
2019-03-08T02:02:40.584Z,989.40
2019-03-08T02:03:40.571Z,989.18
2019-03-08T02:04:40.558Z,989.39
2019-03-08T02:05:40.567Z,989.43
2019-03-08T02:06:40.538Z,989.38
2019-03-08T02:07:40.525Z,989.43
2019-03-08T02:08:40.514Z,989.36
2019-03-08T02:09:40.504Z,989.33
2019-03-08T02:10:40.509Z,989.36
2019-03-08T02:11:40.481Z,989.36
2019-03-08T02:12:42.043Z,989.31
2019-03-08T02:13:40.458Z,989.37
2019-03-08T02:14:40.445Z,989.49
2019-03-08T02:15:40.454Z,989.49
2019-03-08T02:16:40.424Z,989.37
2019-03-08T02:17:40.410Z,989.33
2019-03-08T02:18:40.400Z,989.41
2019-03-08T02:19:40.389Z,989.45
2019-03-08T02:20:40.399Z,989.54
2019-03-08T02:21:40.368Z,989.42
2019-03-08T02:22:40.359Z,989.45
2019-03-08T02:23:40.345Z,989.61
2019-03-08T02:24:40.332Z,989.41
2019-03-08T02:25:40.369Z,989.34
2019-03-08T02:26:40.313Z,989.41
2019-03-08T02:27:47.361Z,989.35
2019-03-08T02:28:40.290Z,989.58
2019-03-08T02:29:40.275Z,989.58
2019-03-08T02:30:40.266Z,989.36
2019-03-08T02:31:40.272Z,989.40
2019-03-08T02:32:40.248Z,989.23
2019-03-08T02:33:40.297Z,989.31
2019-03-08T02:34:40.221Z,989.44
2019-03-08T02:35:40.210Z,989.45
2019-03-08T02:36:40.212Z,989.52
2019-03-08T02:37:40.188Z,989.54
2019-03-08T02:38:40.175Z,989.46
2019-03-08T02:39:40.162Z,989.44
2019-03-08T02:40:40.150Z,989.59
2019-03-08T02:41:40.158Z,989.63
2019-03-08T02:42:40.130Z,989.58
2019-03-08T02:43:40.117Z,989.62
2019-03-08T02:44:40.104Z,989.53
2019-03-08T02:45:40.094Z,989.76
2019-03-08T02:46:40.123Z,989.59
2019-03-08T02:47:40.069Z,989.70
2019-03-08T02:48:40.058Z,989.70
2019-03-08T02:49:40.047Z,989.77
2019-03-08T02:50:40.038Z,989.69
2019-03-08T02:51:40.025Z,989.70
2019-03-08T02:52:40.030Z,989.75
2019-03-08T02:53:39.999Z,989.77
2019-03-08T02:54:39.989Z,989.81
2019-03-08T02:55:39.979Z,989.72
2019-03-08T02:56:39.968Z,989.98
2019-03-08T02:57:39.975Z,990.08
2019-03-08T02:58:39.943Z,989.90
2019-03-08T02:59:39.931Z,990.06
2019-03-08T03:00:39.918Z,990.12
2019-03-08T03:01:39.910Z,990.18
2019-03-08T03:02:39.923Z,990.18
2019-03-08T03:03:39.883Z,990.30
2019-03-08T03:04:39.876Z,990.37
2019-03-08T03:05:39.863Z,990.35
2019-03-08T03:06:39.850Z,990.25
2019-03-08T03:07:39.841Z,990.43
2019-03-08T03:08:39.845Z,990.29
2019-03-08T03:09:39.817Z,990.38
2019-03-08T03:10:39.805Z,990.39
2019-03-08T03:11:39.791Z,990.39
2019-03-08T03:12:39.782Z,990.33
2019-03-08T03:13:39.789Z,990.43
2019-03-08T03:14:39.758Z,990.43
2019-03-08T03:15:39.751Z,990.41
2019-03-08T03:16:39.734Z,990.43
2019-03-08T03:17:39.724Z,990.45
2019-03-08T03:18:39.730Z,990.55
2019-03-08T03:19:39.701Z,990.51
2019-03-08T03:20:39.688Z,990.53
2019-03-08T03:21:39.677Z,990.49
2019-03-08T03:22:39.664Z,990.62
2019-03-08T03:23:39.671Z,990.56
2019-03-08T03:24:39.642Z,990.59
2019-03-08T03:25:39.633Z,990.67
2019-03-08T03:26:39.620Z,990.66
2019-03-08T03:27:39.608Z,990.72
2019-03-08T03:28:39.621Z,990.78
2019-03-08T03:29:39.587Z,990.76
2019-03-08T03:30:39.578Z,990.77
2019-03-08T03:31:39.563Z,990.85
2019-03-08T03:32:39.552Z,990.78
2019-03-08T03:33:39.539Z,990.84
2019-03-08T03:34:39.576Z,990.62
2019-03-08T03:35:39.518Z,990.65
2019-03-08T03:36:39.506Z,990.79
2019-03-08T03:37:39.510Z,990.73
2019-03-08T03:38:39.482Z,990.66
2019-03-08T03:39:39.497Z,990.70
2019-03-08T03:40:39.462Z,990.68
2019-03-08T03:41:39.447Z,990.74
2019-03-08T03:42:39.439Z,990.73
2019-03-08T03:43:39.425Z,990.88
2019-03-08T03:44:39.411Z,990.87
2019-03-08T03:45:39.420Z,990.90
2019-03-08T03:46:39.390Z,990.86
2019-03-08T03:47:39.377Z,990.91
2019-03-08T03:48:39.367Z,990.94
2019-03-08T03:49:39.354Z,990.90
2019-03-08T03:50:39.361Z,990.93
2019-03-08T03:51:39.333Z,990.88
2019-03-08T03:52:39.323Z,990.95
2019-03-08T03:53:39.309Z,991.03
2019-03-08T03:54:39.296Z,991.11
2019-03-08T03:55:39.304Z,991.07
2019-03-08T03:56:39.273Z,991.03
2019-03-08T03:57:39.264Z,991.09
2019-03-08T03:58:39.249Z,991.13
2019-03-08T03:59:39.241Z,991.07
2019-03-08T04:00:39.247Z,991.08
2019-03-08T04:01:39.218Z,991.10
2019-03-08T04:02:39.206Z,991.12
2019-03-08T04:03:39.193Z,991.03
2019-03-08T04:04:39.182Z,991.14
2019-03-08T04:05:39.202Z,991.10
2019-03-08T04:06:39.157Z,991.15
2019-03-08T04:07:39.148Z,991.23
2019-03-08T04:08:39.136Z,991.19
2019-03-08T04:09:39.125Z,991.25
2019-03-08T04:10:39.137Z,991.18
2019-03-08T04:11:39.104Z,991.27
2019-03-08T04:12:39.094Z,991.28
2019-03-08T04:13:39.082Z,991.24
2019-03-08T04:14:39.067Z,991.31
2019-03-08T04:15:39.058Z,991.36
2019-03-08T04:16:39.065Z,991.36
2019-03-08T04:17:39.034Z,991.32
2019-03-08T04:18:39.022Z,991.41
2019-03-08T04:19:39.013Z,991.41
2019-03-08T04:20:39.001Z,991.46
2019-03-08T04:21:39.011Z,991.49
2019-03-08T04:22:38.978Z,991.42
2019-03-08T04:23:38.967Z,991.44
2019-03-08T04:24:38.963Z,991.51
2019-03-08T04:25:38.945Z,991.53
2019-03-08T04:26:38.932Z,991.59
2019-03-08T04:27:38.937Z,991.53
2019-03-08T04:28:38.906Z,991.61
2019-03-08T04:29:38.896Z,991.64
2019-03-08T04:30:38.885Z,991.63
2019-03-08T04:31:38.873Z,991.74
2019-03-08T04:32:38.885Z,991.69
2019-03-08T04:33:38.849Z,991.77
2019-03-08T04:34:38.840Z,991.77
2019-03-08T04:35:38.828Z,991.90
2019-03-08T04:36:38.820Z,991.89
2019-03-08T04:37:38.824Z,991.86
2019-03-08T04:38:38.796Z,991.86
2019-03-08T04:39:38.782Z,991.84
2019-03-08T04:40:38.773Z,992.00
2019-03-08T04:41:38.758Z,991.85
2019-03-08T04:42:38.769Z,991.99
2019-03-08T04:43:38.736Z,992.00
2019-03-08T04:44:38.725Z,991.99
2019-03-08T04:45:38.716Z,992.03
2019-03-08T04:46:38.701Z,991.93
2019-03-08T04:47:38.712Z,992.02
2019-03-08T04:48:38.685Z,992.01
2019-03-08T04:49:38.670Z,992.01
2019-03-08T04:50:38.659Z,992.01
2019-03-08T04:51:38.647Z,992.02
2019-03-08T04:52:38.653Z,991.97
2019-03-08T04:53:38.625Z,992.10
2019-03-08T04:54:38.612Z,992.06
2019-03-08T04:55:38.600Z,992.07
2019-03-08T04:56:38.589Z,992.12
2019-03-08T04:57:38.617Z,992.09
2019-03-08T04:58:38.571Z,992.10
2019-03-08T04:59:38.556Z,992.13
2019-03-08T05:00:38.545Z,992.13
2019-03-08T05:01:38.535Z,992.09
2019-03-08T05:02:38.522Z,992.26
2019-03-08T05:03:38.528Z,992.29
2019-03-08T05:04:38.502Z,992.15
2019-03-08T05:05:38.487Z,992.25
2019-03-08T05:06:38.476Z,992.26
2019-03-08T05:07:38.475Z,992.22
2019-03-08T05:08:38.473Z,992.24
2019-03-08T05:09:38.444Z,992.30
2019-03-08T05:10:38.432Z,992.30
2019-03-08T05:11:38.418Z,992.35
2019-03-08T05:12:38.408Z,992.48
2019-03-08T05:13:38.418Z,992.34
2019-03-08T05:14:38.385Z,992.37
2019-03-08T05:15:38.376Z,992.40
2019-03-08T05:16:38.363Z,992.40
2019-03-08T05:17:38.352Z,992.54
2019-03-08T05:18:38.390Z,992.46
2019-03-08T05:19:38.331Z,992.43
2019-03-08T05:20:38.319Z,992.38
2019-03-08T05:21:38.306Z,992.48
2019-03-08T05:22:38.296Z,992.49
2019-03-08T05:23:38.280Z,992.56
2019-03-08T05:24:38.291Z,992.52
2019-03-08T05:25:38.260Z,992.61
2019-03-08T05:26:38.247Z,992.66
2019-03-08T05:27:38.236Z,992.60
2019-03-08T05:28:38.225Z,992.60
2019-03-08T05:29:38.235Z,992.56
2019-03-08T05:30:38.200Z,992.71
2019-03-08T05:31:38.190Z,992.63
2019-03-08T05:32:38.178Z,992.65
2019-03-08T05:33:38.165Z,992.78
2019-03-08T05:34:38.176Z,992.76
2019-03-08T05:35:38.144Z,992.76
2019-03-08T05:36:38.131Z,992.79
2019-03-08T05:37:38.119Z,992.76
2019-03-08T05:38:38.111Z,992.85
2019-03-08T05:39:38.099Z,992.85
2019-03-08T05:40:38.102Z,992.92
2019-03-08T05:41:38.073Z,992.98
2019-03-08T05:42:38.062Z,992.91
2019-03-08T05:43:38.053Z,993.05
2019-03-08T05:44:38.039Z,993.03
2019-03-08T05:45:38.047Z,993.05
2019-03-08T05:46:38.015Z,993.06
2019-03-08T05:47:38.003Z,993.07
2019-03-08T05:48:37.995Z,993.02
2019-03-08T05:49:37.981Z,993.07
2019-03-08T05:50:37.988Z,993.12
2019-03-08T05:51:37.960Z,993.15
2019-03-08T05:52:37.948Z,993.19
2019-03-08T05:53:37.936Z,993.19
2019-03-08T05:54:37.937Z,993.23
2019-03-08T05:55:37.930Z,993.31
2019-03-08T05:56:37.901Z,993.32
2019-03-08T05:57:37.888Z,993.29
2019-03-08T05:58:37.895Z,993.34
2019-03-08T05:59:37.872Z,993.32
2019-03-08T06:00:37.874Z,993.44
2019-03-08T06:01:37.843Z,993.43
2019-03-08T06:02:37.831Z,993.46
2019-03-08T06:03:37.819Z,993.51
2019-03-08T06:04:37.807Z,993.51
2019-03-08T06:05:37.815Z,993.47
2019-03-08T06:06:37.786Z,993.53
2019-03-08T06:07:37.776Z,993.63
2019-03-08T06:08:37.762Z,993.57
2019-03-08T06:09:37.751Z,993.59
2019-03-08T06:10:37.757Z,993.65
2019-03-08T06:11:37.729Z,993.58
2019-03-08T06:12:37.716Z,993.72
2019-03-08T06:13:37.705Z,993.70
2019-03-08T06:14:37.695Z,993.72
2019-03-08T06:15:37.700Z,993.85
2019-03-08T06:16:37.670Z,993.78
2019-03-08T06:17:37.671Z,993.76
2019-03-08T06:18:37.647Z,993.84
2019-03-08T06:19:37.635Z,993.90
2019-03-08T06:20:37.646Z,993.85
2019-03-08T06:21:37.613Z,993.81
2019-03-08T06:22:37.602Z,993.86
2019-03-08T06:23:37.592Z,993.87
2019-03-08T06:24:37.582Z,994.00
2019-03-08T06:25:37.587Z,994.04
2019-03-08T06:26:37.556Z,994.06
2019-03-08T06:27:37.545Z,994.07
2019-03-08T06:28:37.538Z,994.10
2019-03-08T06:29:37.521Z,994.16
2019-03-08T06:30:37.528Z,994.19
2019-03-08T06:31:37.499Z,994.30
2019-03-08T06:32:37.487Z,994.30
2019-03-08T06:33:37.474Z,994.27
2019-03-08T06:34:37.467Z,994.30
2019-03-08T06:35:37.471Z,994.35
2019-03-08T06:36:37.446Z,994.38
2019-03-08T06:37:37.429Z,994.40
2019-03-08T06:38:37.422Z,994.46
2019-03-08T06:39:37.405Z,994.44
2019-03-08T06:40:37.415Z,994.54
2019-03-08T06:41:37.381Z,994.50
2019-03-08T06:42:37.371Z,994.48
2019-03-08T06:43:37.358Z,994.56
2019-03-08T06:44:37.348Z,994.62
2019-03-08T06:45:37.354Z,994.71
2019-03-08T06:46:37.327Z,994.66
2019-03-08T06:47:37.313Z,994.73
2019-03-08T06:48:37.302Z,994.84
2019-03-08T06:49:37.292Z,994.85
2019-03-08T06:50:37.302Z,994.73
2019-03-08T06:51:37.271Z,994.86
2019-03-08T06:52:37.257Z,994.90
2019-03-08T06:53:37.245Z,994.95
2019-03-08T06:54:37.236Z,994.96
2019-03-08T06:55:37.246Z,994.91
2019-03-08T06:56:37.212Z,995.07
2019-03-08T06:57:37.199Z,995.05
2019-03-08T06:58:37.191Z,995.13
2019-03-08T06:59:37.197Z,995.16
2019-03-08T07:00:37.229Z,995.17
2019-03-08T07:01:37.158Z,995.23
2019-03-08T07:02:37.146Z,995.15
2019-03-08T07:03:37.139Z,995.21
2019-03-08T07:04:37.121Z,995.32
2019-03-08T07:05:37.120Z,995.25
2019-03-08T07:06:37.117Z,995.31
2019-03-08T07:07:37.087Z,995.36
2019-03-08T07:08:37.080Z,995.35
2019-03-08T07:09:37.068Z,995.45
2019-03-08T07:10:37.054Z,995.56
2019-03-08T07:11:37.059Z,995.57
2019-03-08T07:12:37.031Z,995.59
2019-03-08T07:13:37.019Z,995.58
2019-03-08T07:14:37.009Z,995.65
2019-03-08T07:15:36.999Z,995.66
2019-03-08T07:16:37.005Z,995.64
2019-03-08T07:17:36.975Z,995.72
2019-03-08T07:18:36.963Z,995.75
2019-03-08T07:19:40.968Z,995.76
2019-03-08T07:20:37.938Z,995.71
2019-03-08T07:21:36.950Z,995.77
2019-03-08T07:22:36.921Z,995.73
2019-03-08T07:23:36.905Z,995.77
2019-03-08T07:24:36.894Z,995.76
2019-03-08T07:25:36.885Z,995.84
2019-03-08T07:26:36.893Z,995.88
2019-03-08T07:27:36.864Z,995.90
2019-03-08T07:28:36.857Z,995.86
2019-03-08T07:29:36.842Z,995.94
2019-03-08T07:30:36.827Z,995.88
2019-03-08T07:31:36.836Z,995.93
2019-03-08T07:32:36.804Z,996.05
2019-03-08T07:33:36.800Z,996.14
2019-03-08T07:34:36.784Z,996.13
2019-03-08T07:35:36.773Z,996.26
2019-03-08T07:36:36.801Z,996.21
2019-03-08T07:37:36.748Z,996.22
2019-03-08T07:38:36.737Z,996.24
2019-03-08T07:39:36.727Z,996.33
2019-03-08T07:40:36.717Z,996.33
2019-03-08T07:41:36.704Z,996.37
2019-03-08T07:42:36.713Z,996.44
2019-03-08T07:43:36.703Z,996.41
2019-03-08T07:44:36.669Z,996.53
2019-03-08T07:45:36.660Z,996.55
2019-03-08T07:46:36.647Z,996.60
2019-03-08T07:47:36.658Z,996.53
2019-03-08T07:48:36.625Z,996.59
2019-03-08T07:49:36.611Z,996.68
2019-03-08T07:50:36.604Z,996.70
2019-03-08T07:51:36.588Z,996.61
2019-03-08T07:52:36.597Z,996.68
2019-03-08T07:53:36.569Z,996.67
2019-03-08T07:54:36.554Z,996.76
2019-03-08T07:55:36.548Z,996.65
2019-03-08T07:56:36.533Z,996.77
2019-03-08T07:57:36.544Z,996.82
2019-03-08T07:58:36.510Z,996.80
2019-03-08T07:59:36.499Z,996.81
2019-03-08T08:00:36.487Z,996.90
2019-03-08T08:01:36.475Z,996.93
2019-03-08T08:02:36.482Z,996.89
2019-03-08T08:03:36.452Z,996.86
2019-03-08T08:04:36.442Z,996.85
2019-03-08T08:05:36.427Z,996.86
2019-03-08T08:06:36.418Z,996.81
2019-03-08T08:07:36.421Z,996.95
2019-03-08T08:08:36.395Z,996.87
2019-03-08T08:09:36.381Z,997.02
2019-03-08T08:10:36.372Z,997.12
2019-03-08T08:11:36.359Z,997.12
2019-03-08T08:12:36.370Z,997.24
2019-03-08T08:13:36.335Z,997.19
2019-03-08T08:14:39.564Z,997.19
2019-03-08T08:15:36.313Z,997.11
2019-03-08T08:16:36.302Z,997.25
2019-03-08T08:17:36.308Z,997.26
2019-03-08T08:18:36.277Z,997.23
2019-03-08T08:19:36.267Z,997.08
2019-03-08T08:20:36.257Z,997.36
2019-03-08T08:21:36.245Z,997.29
2019-03-08T08:22:36.273Z,997.32
2019-03-08T08:23:36.225Z,997.41
2019-03-08T08:24:36.211Z,997.42
2019-03-08T08:25:37.016Z,997.38
2019-03-08T08:26:36.192Z,997.32
2019-03-08T08:28:28.577Z,997.42
2019-03-08T08:29:35.067Z,997.53
2019-03-08T08:30:29.544Z,997.60
2019-03-08T08:31:28.528Z,997.62
2019-03-08T08:32:28.520Z,997.60
2019-03-08T08:33:28.522Z,997.58
2019-03-08T08:34:28.492Z,997.61
2019-03-08T08:35:28.486Z,997.64
2019-03-08T08:36:28.473Z,997.65
2019-03-08T08:37:28.458Z,997.59
2019-03-08T08:38:28.466Z,997.60
2019-03-08T08:39:28.449Z,997.63
2019-03-08T08:40:28.423Z,997.69
2019-03-08T08:41:28.411Z,997.64
2019-03-08T08:42:28.402Z,997.69
2019-03-08T08:43:28.405Z,997.69
2019-03-08T08:44:28.374Z,997.84
2019-03-08T08:45:28.363Z,997.87
2019-03-08T08:46:28.353Z,997.90
2019-03-08T08:47:28.341Z,997.91
2019-03-08T08:48:28.347Z,997.88
2019-03-08T08:49:28.321Z,997.86
2019-03-08T08:50:28.306Z,997.91
2019-03-08T08:51:28.292Z,997.97
2019-03-08T08:52:28.283Z,998.00
2019-03-08T08:53:28.288Z,998.05
2019-03-08T08:54:28.257Z,998.01
2019-03-08T08:55:28.247Z,998.12
2019-03-08T08:56:28.236Z,998.36
2019-03-08T08:57:28.227Z,998.14
2019-03-08T08:58:28.255Z,998.00
2019-03-08T08:59:28.202Z,998.00
2019-03-08T09:00:28.190Z,998.09
2019-03-08T09:01:28.181Z,998.07
2019-03-08T09:02:28.166Z,998.10
2019-03-08T09:03:28.155Z,998.18
2019-03-08T09:04:28.164Z,998.46
2019-03-08T09:05:28.134Z,998.42
2019-03-08T09:06:28.122Z,998.33
2019-03-08T09:07:28.111Z,998.41
2019-03-08T09:08:28.099Z,998.16
2019-03-08T09:09:28.112Z,998.11
2019-03-08T09:10:28.074Z,998.09
2019-03-08T09:11:28.064Z,998.14
2019-03-08T09:12:28.050Z,998.16
2019-03-08T09:13:28.043Z,998.19
2019-03-08T09:14:28.045Z,998.33
2019-03-08T09:15:28.016Z,998.26
2019-03-08T09:16:28.004Z,998.25
2019-03-08T09:17:27.994Z,998.29
2019-03-08T09:18:27.983Z,998.27
2019-03-08T09:19:27.990Z,998.33
2019-03-08T09:20:27.959Z,998.29
2019-03-08T09:21:27.949Z,998.26
2019-03-08T09:22:27.935Z,998.30
2019-03-08T09:23:27.923Z,998.30
2019-03-08T09:24:27.932Z,998.31
2019-03-08T09:25:27.901Z,998.40
2019-03-08T09:26:27.890Z,998.44
2019-03-08T09:27:27.885Z,998.47
2019-03-08T09:28:27.868Z,998.53
2019-03-08T09:29:27.892Z,998.58
2019-03-08T09:30:27.847Z,998.52
2019-03-08T09:31:27.833Z,998.49
2019-03-08T09:32:27.828Z,998.57
2019-03-08T09:33:27.812Z,998.47
2019-03-08T09:34:27.796Z,998.48
2019-03-08T09:35:27.806Z,998.49
2019-03-08T09:36:27.775Z,998.51
2019-03-08T09:37:27.764Z,998.53
2019-03-08T09:38:27.751Z,998.53
2019-03-08T09:39:27.744Z,998.61
2019-03-08T09:40:27.749Z,998.48
2019-03-08T09:41:27.717Z,998.57
2019-03-08T09:42:27.707Z,998.62
2019-03-08T09:43:27.697Z,998.69
2019-03-08T09:44:27.682Z,998.70
2019-03-08T09:45:27.690Z,998.72
2019-03-08T09:46:27.658Z,999.12
2019-03-08T09:47:27.647Z,998.68
2019-03-08T09:48:27.637Z,998.67
2019-03-08T09:49:27.623Z,998.73
2019-03-08T09:50:27.630Z,998.75
2019-03-08T09:51:27.601Z,998.70
2019-03-08T09:52:27.590Z,998.73
2019-03-08T09:53:27.578Z,998.74
2019-03-08T09:54:27.566Z,998.78
2019-03-08T09:55:27.573Z,998.78
2019-03-08T09:56:27.542Z,998.86
2019-03-08T09:57:27.530Z,998.80
2019-03-08T09:58:27.524Z,998.89
2019-03-08T09:59:27.650Z,998.93
2019-03-08T10:00:27.514Z,998.91
2019-03-08T10:01:27.486Z,998.89
2019-03-08T10:02:27.474Z,999.01
2019-03-08T10:03:27.464Z,999.01
2019-03-08T10:04:27.456Z,998.98
2019-03-08T10:05:27.473Z,998.98
2019-03-08T10:06:27.429Z,998.97
2019-03-08T10:07:27.415Z,999.05
2019-03-08T10:08:27.405Z,999.18
2019-03-08T10:09:27.391Z,999.09
2019-03-08T10:10:27.403Z,999.19
2019-03-08T10:11:27.367Z,999.17
2019-03-08T10:12:29.315Z,999.15
2019-03-08T10:13:27.345Z,999.22
2019-03-08T10:14:27.334Z,999.39
2019-03-08T10:15:27.329Z,999.15
2019-03-08T10:16:27.346Z,999.22
2019-03-08T10:17:27.299Z,999.23
2019-03-08T10:18:27.289Z,999.10
2019-03-08T10:19:27.279Z,999.25
2019-03-08T10:20:27.269Z,999.21
2019-03-08T10:21:27.274Z,999.30
2019-03-08T10:22:27.247Z,999.32
2019-03-08T10:23:27.230Z,999.21
2019-03-08T10:24:27.220Z,999.28
2019-03-08T10:25:27.209Z,999.27
2019-03-08T10:26:27.215Z,999.34
2019-03-08T10:27:27.187Z,999.32
2019-03-08T10:28:27.174Z,999.39
2019-03-08T10:29:27.162Z,999.39
2019-03-08T10:30:27.154Z,999.41
2019-03-08T10:31:27.161Z,999.33
2019-03-08T10:32:27.129Z,999.45
2019-03-08T10:33:27.117Z,999.42
2019-03-08T10:34:27.105Z,999.42
2019-03-08T10:35:27.096Z,999.52
2019-03-08T10:36:27.103Z,999.49
2019-03-08T10:37:27.073Z,999.82
2019-03-08T10:38:27.059Z,999.96
2019-03-08T10:39:27.047Z,999.83
2019-03-08T10:40:27.038Z,999.58
2019-03-08T10:41:27.041Z,999.60
2019-03-08T10:42:27.014Z,999.52
2019-03-08T10:43:27.001Z,999.55
2019-03-08T10:44:26.990Z,999.71
2019-03-08T10:45:26.978Z,999.73
2019-03-08T10:46:26.983Z,999.68
2019-03-08T10:47:26.952Z,999.74
2019-03-08T10:48:26.943Z,999.76
2019-03-08T10:49:26.932Z,999.77
2019-03-08T10:50:26.920Z,999.74
2019-03-08T10:51:26.928Z,999.75
2019-03-08T10:52:26.896Z,999.85
2019-03-08T10:53:26.886Z,999.80
2019-03-08T10:54:26.878Z,999.96
2019-03-08T10:55:26.859Z,999.90
2019-03-08T10:56:26.848Z,999.98
2019-03-08T10:57:26.860Z,999.92
2019-03-08T10:58:26.833Z,999.97
2019-03-08T10:59:26.818Z,999.97
2019-03-08T11:00:26.803Z,1000.04
2019-03-08T11:01:26.791Z,1000.06
2019-03-08T11:02:26.797Z,1000.05
2019-03-08T11:03:26.768Z,1000.05
2019-03-08T11:04:26.757Z,1000.13
2019-03-08T11:05:26.748Z,1000.25
2019-03-08T11:06:26.734Z,1000.22
2019-03-08T11:07:26.739Z,1000.16
2019-03-08T11:08:29.698Z,1000.13
2019-03-08T11:09:26.697Z,1000.13
2019-03-08T11:10:26.685Z,1000.16
2019-03-08T11:11:26.672Z,1000.20
2019-03-08T11:12:26.709Z,1000.17
2019-03-08T11:13:26.653Z,1000.24
2019-03-08T11:14:26.640Z,1000.27
2019-03-08T11:15:26.634Z,1000.27
2019-03-08T11:16:26.616Z,1000.42
2019-03-08T11:17:26.603Z,1000.53
2019-03-08T11:18:26.611Z,1000.58
2019-03-08T11:19:27.658Z,1000.64
2019-03-08T11:20:26.572Z,1000.63
2019-03-08T11:21:26.559Z,1000.66
2019-03-08T11:22:26.548Z,1000.68
2019-03-08T11:23:26.556Z,1000.69
2019-03-08T11:24:26.523Z,1000.72
2019-03-08T11:25:34.675Z,1000.71
2019-03-08T11:26:27.507Z,1000.68
2019-03-08T11:27:26.490Z,1000.88
2019-03-08T11:28:26.499Z,1000.82
2019-03-08T11:29:26.468Z,1000.76
2019-03-08T11:30:26.456Z,1000.76
2019-03-08T11:31:26.445Z,1000.79
2019-03-08T11:32:26.434Z,1000.80
2019-03-08T11:33:26.439Z,1000.88
2019-03-08T11:34:26.409Z,1000.81
2019-03-08T11:35:26.399Z,1000.80
2019-03-08T11:36:26.386Z,1000.87
2019-03-08T11:37:27.829Z,1000.92
2019-03-08T11:38:26.382Z,1001.03
2019-03-08T11:39:26.354Z,1001.02
2019-03-08T11:40:26.340Z,1001.01
2019-03-08T11:41:26.329Z,1000.90
2019-03-08T11:42:26.324Z,1000.88
2019-03-08T11:43:26.325Z,1001.03
2019-03-08T11:44:26.294Z,1000.97
2019-03-08T11:45:26.384Z,1000.96
2019-03-08T11:46:26.272Z,1000.98
2019-03-08T11:47:26.259Z,1000.92
2019-03-08T11:48:26.268Z,1000.97
2019-03-08T11:49:26.235Z,1000.95
2019-03-08T11:50:26.224Z,1001.01
2019-03-08T11:51:26.213Z,1001.00
2019-03-08T11:52:26.202Z,1001.07
2019-03-08T11:53:26.237Z,1000.95
2019-03-08T11:54:26.183Z,1001.01
2019-03-08T11:55:26.168Z,1001.01
2019-03-08T11:56:26.160Z,1001.05
2019-03-08T11:57:26.144Z,1001.01
2019-03-08T11:58:26.219Z,1000.97
2019-03-08T11:59:26.139Z,1001.06
2019-03-08T12:00:26.109Z,1001.04
2019-03-08T12:01:26.096Z,1001.10
2019-03-08T12:02:26.087Z,1001.07
2019-03-08T12:03:26.075Z,1001.16
2019-03-08T12:04:26.086Z,1001.04
2019-03-08T12:05:26.053Z,1001.25
2019-03-08T12:06:26.038Z,1001.36
2019-03-08T12:07:26.028Z,1001.17
2019-03-08T12:08:26.020Z,1001.24
2019-03-08T12:09:26.030Z,1001.30
2019-03-08T12:10:25.996Z,1001.08
2019-03-08T12:11:25.983Z,1001.08
2019-03-08T12:12:25.970Z,1001.08
2019-03-08T12:13:25.959Z,1001.06
2019-03-08T12:14:25.967Z,1001.22
2019-03-08T12:15:25.960Z,1001.18
2019-03-08T12:16:25.923Z,1001.24
2019-03-08T12:17:25.913Z,1001.22
2019-03-08T12:18:25.901Z,1001.16
2019-03-08T12:19:25.911Z,1001.28
2019-03-08T12:20:25.880Z,1001.19
2019-03-08T12:21:25.866Z,1001.28
2019-03-08T12:22:25.857Z,1001.30
2019-03-08T12:23:25.843Z,1001.18
2019-03-08T12:24:25.853Z,1001.16
2019-03-08T12:25:25.823Z,1001.17
2019-03-08T12:26:25.824Z,1000.93